July 2, 2022

Time Code Weather Temp. Visibility Ceiling Wind METAR/SPECI
10:00 am
V
72 °F 6¼ mi+ - Var Var 2 kt METAR LFMK 020800Z AUTO VRB02KT CAVOK 22/12 Q1019 NOSIG
9:30 am
V
70 °F 6¼ mi+ - 260° 260° 2 kt METAR LFMK 020730Z AUTO 26002KT CAVOK 21/12 Q1020 BECMG 09010KT
9:00 am
V
66 °F 6¼ mi+ - Var Var 2 kt METAR LFMK 020700Z AUTO VRB02KT CAVOK 19/12 Q1020 NOSIG
8:30 am
V
61 °F 6¼ mi+ - 280° 280° 3 kt METAR LFMK 020630Z AUTO 28003KT 230V310 CAVOK 16/12 Q1020 BECMG 09010KT
8:00 am
V
57 °F 6¼ mi+ - Var Var 3 kt METAR LFMK 020600Z AUTO VRB03KT CAVOK 14/12 Q1020 NOSIG
7:30 am
V
55 °F 6¼ mi+ - Var Var 1 kt METAR LFMK 020530Z AUTO VRB01KT CAVOK 13/11 Q1020 NOSIG
7:00 am
V
54 °F 6¼ mi+ - Var 000° 0 kt METAR LFMK 020500Z AUTO 00000KT CAVOK 12/11 Q1020 NOSIG
6:30 am
V
52 °F 6¼ mi+ - Var Var 2 kt METAR LFMK 020430Z AUTO VRB02KT CAVOK 11/10 Q1020 NOSIG
6:00 am
V
52 °F 6¼ mi+ - Var Var 2 kt METAR LFMK 020400Z AUTO VRB02KT CAVOK 11/10 Q1019 NOSIG
5:30 am
V
54 °F 6¼ mi+ - Var Var 3 kt METAR LFMK 020330Z AUTO VRB03KT CAVOK 12/11 Q1019 NOSIG
5:00 am
V
52 °F 6¼ mi+ - 190° 190° 3 kt METAR LFMK 020300Z AUTO 19003KT 150V230 CAVOK 11/10 Q1019 NOSIG
4:30 am
V
54 °F 6¼ mi+ - Var Var 2 kt METAR LFMK 020230Z AUTO VRB02KT CAVOK 12/11 Q1019 NOSIG
4:00 am
V
54 °F 6¼ mi+ - Var Var 3 kt METAR LFMK 020200Z AUTO VRB03KT CAVOK 12/10 Q1019
3:30 am
V
54 °F 6¼ mi+ - Var Var 2 kt METAR LFMK 020130Z AUTO VRB02KT CAVOK 12/11 Q1019
3:00 am
V
54 °F 6¼ mi+ - Var Var 2 kt METAR LFMK 020100Z AUTO VRB02KT CAVOK 12/10 Q1020
2:30 am
V
55 °F 6¼ mi+ - Var Var 2 kt METAR LFMK 020030Z AUTO VRB02KT CAVOK 13/10 Q1020
2:00 am
V
55 °F 6¼ mi+ - Var Var 2 kt METAR LFMK 020000Z AUTO VRB02KT CAVOK 13/10 Q1020
1:30 am
V
57 °F 6¼ mi+ - Var 000° 0 kt METAR LFMK 012330Z AUTO 00000KT CAVOK 14/10 Q1020
1:00 am
V
59 °F 6¼ mi+ - Var Var 3 kt METAR LFMK 012300Z AUTO VRB03KT CAVOK 15/10 Q1020
12:30 am
V
61 °F 6¼ mi+ - 190° 190° 3 kt METAR LFMK 012230Z AUTO 19003KT 160V230 CAVOK 16/10 Q1020
12:00 am
V
61 °F 6¼ mi+ - Var Var 3 kt METAR LFMK 012200Z AUTO VRB03KT CAVOK 16/10 Q1020

July 1, 2022

Time Code Weather Temp. Visibility Ceiling Wind METAR/SPECI
11:30 pm
V
61 °F 6¼ mi+ - 290° 290° 4 kt METAR LFMK 012130Z AUTO 29004KT 240V320 CAVOK 16/10 Q1020
11:00 pm
V
63 °F 6¼ mi+ - 280° 280° 3 kt METAR LFMK 012100Z AUTO 28003KT CAVOK 17/10 Q1020
10:30 pm
V
66 °F 6¼ mi+ - 250° 250° 3 kt METAR LFMK 012030Z AUTO 25003KT 230V290 CAVOK 19/09 Q1020
10:00 pm
I
68 °F 2⅞ mi - 250° 250° 5 kt METAR LFMK 012000Z AUTO 25005KT 9999 4600 NSC 20/09 Q1020
9:30 pm
V
70 °F 6¼ mi+ - 260° 260° 5 kt METAR LFMK 011930Z AUTO 26005KT 230V290 CAVOK 21/10 Q1020
9:00 pm
V
72 °F 6¼ mi+ - 270° 270° 7 kt METAR LFMK 011900Z AUTO 27007KT 240V300 CAVOK 22/10 Q1019
8:30 pm
V
73 °F 6¼ mi+ - 290° 290° 9 kt METAR LFMK 011830Z AUTO 29009KT 250V310 CAVOK 23/09 Q1019
8:00 pm
V
75 °F 6¼ mi+ - 270° 270° 9 kt METAR LFMK 011800Z AUTO 27009KT 240V300 CAVOK 24/09 Q1019 NOSIG
7:30 pm
V
75 °F 6¼ mi+ - 280° 280° 10 kt METAR LFMK 011730Z AUTO 28010KT 250V310 CAVOK 24/09 Q1019 NOSIG
7:00 pm
V
77 °F 6¼ mi+ - 280° 280° 10 kt METAR LFMK 011700Z AUTO 28010KT 230V290 CAVOK 25/09 Q1019 NOSIG
6:30 pm
V
77 °F 6¼ mi+ - 300° 300° 9 kt METAR LFMK 011630Z AUTO 30009KT 230V330 CAVOK 25/10 Q1019 NOSIG
6:00 pm
V
77 °F 6¼ mi+ - 280° 280° 9 kt METAR LFMK 011600Z AUTO 28009KT 240V310 CAVOK 25/10 Q1019 NOSIG
5:30 pm
V
77 °F 6¼ mi+ - 290° 290° 11 kt METAR LFMK 011530Z AUTO 29011KT 240V330 CAVOK 25/10 Q1019 NOSIG
5:00 pm
V
77 °F 6¼ mi+ - 270° 270° 12 kt METAR LFMK 011500Z AUTO 27012KT 240V320 CAVOK 25/10 Q1019 NOSIG
4:30 pm
V
77 °F 6¼ mi+ - 280° 280° 11 kt METAR LFMK 011430Z AUTO 28011KT 230V320 CAVOK 25/10 Q1019 NOSIG
4:00 pm
V
75 °F 6¼ mi+ - 280° 280° 12 kt METAR LFMK 011400Z AUTO 28012KT 250V310 CAVOK 24/10 Q1019 NOSIG
3:30 pm
V
77 °F 6¼ mi+ - 290° 290° 11 kt METAR LFMK 011330Z AUTO 29011KT 250V320 CAVOK 25/11 Q1019 NOSIG
3:00 pm
V
75 °F 6¼ mi+ - 280° 280° 10 kt METAR LFMK 011300Z AUTO 28010KT 230V350 CAVOK 24/11 Q1019 NOSIG
2:30 pm
V
75 °F 6¼ mi+ - 290° 290° 11 kt METAR LFMK 011230Z AUTO 29011KT 250V330 9999 FEW052 24/10 Q1020 NOSIG
2:00 pm
V
73 °F 6¼ mi+ - 260° 260° 9 kt METAR LFMK 011200Z AUTO 26009KT 220V300 9999 FEW050 23/10 Q1020 NOSIG
1:30 pm
V
72 °F 6¼ mi+ 4,700 ft 280° 280° 12 kt METAR LFMK 011130Z AUTO 28012KT 240V310 9999 BKN047 22/11 Q1020 NOSIG
1:00 pm
V
73 °F 6¼ mi+ 4,600 ft 280° 280° 9 kt METAR LFMK 011100Z AUTO 28009KT 230V310 9999 BKN046 23/12 Q1020 NOSIG
12:30 pm
V
68 °F 6¼ mi+ 4,400 ft 270° 270° 10 kt METAR LFMK 011030Z AUTO 27010KT 240V300 9999 BKN044 20/11 Q1020 NOSIG
12:00 pm
V
72 °F 6¼ mi+ 4,300 ft 300° 300° 10 kt METAR LFMK 011000Z AUTO 30010KT 230V320 9999 BKN043 22/11 Q1020 NOSIG
11:30 am
V
70 °F 6¼ mi+ 4,100 ft 270° 270° 11 kt METAR LFMK 010930Z AUTO 27011KT 240V300 9999 BKN041 21/10 Q1020 NOSIG
11:00 am
V
66 °F 6¼ mi+ 3,800 ft 280° 280° 12 kt METAR LFMK 010900Z AUTO 28012KT 9999 BKN038 19/11 Q1020 NOSIG
10:30 am
V
68 °F 6¼ mi+ - 280° 280° 11 kt METAR LFMK 010830Z AUTO 28011KT 220V320 9999 FEW035 20/11 Q1020 NOSIG
10:00 am
V
66 °F 6¼ mi+ - 290° 290° 13 kt METAR LFMK 010800Z AUTO 29013KT 250V310 CAVOK 19/11 Q1020 NOSIG
9:30 am
V
64 °F 6¼ mi+ - 290° 290° 12 kt METAR LFMK 010730Z AUTO 29012KT 240V310 CAVOK 18/11 Q1020 NOSIG
9:00 am
V
64 °F 6¼ mi+ - 290° 290° 11 kt METAR LFMK 010700Z AUTO 29011KT 250V320 9999 FEW066 18/12 Q1020 NOSIG
8:30 am
V
61 °F 6¼ mi+ 6,800 ft 280° 280° 10 kt METAR LFMK 010630Z AUTO 28010KT 230V300 9999 OVC068 16/13 Q1020 NOSIG
8:00 am
V
61 °F 6¼ mi+ 3,500 ft 270° 270° 10 kt METAR LFMK 010600Z AUTO 27010KT 240V300 9999 BKN035 OVC068 16/13 Q1020 NOSIG
7:30 am
M
59 °F 6¼ mi+ 2,900 ft 260° 260° 9 kt METAR LFMK 010530Z AUTO 26009KT 230V290 9999 BKN029 OVC036 15/13 Q1020 NOSIG
7:00 am
V
59 °F 6¼ mi+ 3,600 ft 270° 270° 8 kt METAR LFMK 010500Z AUTO 27008KT 9999 SCT028 OVC036 15/13 Q1020 NOSIG
6:30 am
V
59 °F 6¼ mi+ 3,500 ft 270° 270° 8 kt METAR LFMK 010430Z AUTO 27008KT 240V300 9999 OVC035 15/13 Q1020 NOSIG
6:00 am
V
57 °F 6¼ mi+ 3,500 ft 250° 250° 5 kt METAR LFMK 010400Z AUTO 25005KT 210V280 9999 BKN035 BKN072 14/13 Q1020 NOSIG
5:30 am
V
57 °F 6¼ mi+ - 260° 260° 5 kt METAR LFMK 010330Z AUTO 26005KT 230V290 9999 FEW035 14/12 Q1020 NOSIG
5:00 am
V
57 °F 6¼ mi+ - 260° 260° 6 kt METAR LFMK 010300Z AUTO 26006KT CAVOK 14/12 Q1020 NOSIG
4:30 am
V
57 °F 6¼ mi+ - 270° 270° 8 kt METAR LFMK 010230Z AUTO 27008KT 9999 FEW076 14/12 Q1020
4:00 am
V
57 °F 6¼ mi+ 13,000 ft 280° 280° 9 kt METAR LFMK 010200Z AUTO 28009KT 9999 FEW016 BKN130 14/12 Q1020
3:30 am
V
59 °F 6¼ mi+ - 270° 270° 10 kt METAR LFMK 010130Z AUTO 27010KT CAVOK 15/12 Q1020
3:00 am
V
59 °F 6¼ mi+ 14,000 ft 280° 280° 12 kt METAR LFMK 010100Z AUTO 28012KT 9999 FEW078 SCT120 OVC140 15/12 Q1020
2:30 am
V
59 °F 6¼ mi+ 7,800 ft 270° 270° 11 kt METAR LFMK 010030Z AUTO 27011KT 9999 BKN078 OVC140 15/12 Q1020
2:00 am
V
61 °F 6¼ mi+ 8,000 ft 270° 270° 13 kt METAR LFMK 010000Z AUTO 27013KT 9999 OVC080 16/12 Q1020
1:30 am
V
61 °F 6¼ mi+ 8,000 ft 270° 270° 16 kt METAR LFMK 302330Z AUTO 27016KT 9999 OVC080 16/12 Q1020
1:00 am
V
61 °F 6¼ mi+ 8,200 ft 270° 270° 15 kt METAR LFMK 302300Z AUTO 27015KT 9999 BKN082 16/13 Q1019
12:30 am
V
61 °F 6¼ mi+ 7,800 ft 270° 270° 15 kt METAR LFMK 302230Z AUTO 27015KT 9999 BKN078 16/12 Q1019
12:00 am
V
61 °F 6¼ mi+ 7,400 ft 270° 270° 14 kt METAR LFMK 302200Z AUTO 27014KT 9999 OVC074 16/13 Q1019

June 30, 2022

Time Code Weather Temp. Visibility Ceiling Wind METAR/SPECI
11:30 pm
V
63 °F 6¼ mi+ 7,400 ft 280° 280° 14 kt METAR LFMK 302130Z AUTO 28014KT 9999 OVC074 17/13 Q1019
11:00 pm
V
61 °F 6¼ mi+ 7,200 ft 270° 270° 13 kt METAR LFMK 302100Z AUTO 27013KT 9999 BKN072 16/13 Q1019
10:30 pm
V
61 °F 6¼ mi+ 7,200 ft 270° 270° 13 kt METAR LFMK 302030Z AUTO 27013KT 9999 BKN072 16/13 Q1018
10:00 pm
V
63 °F 6¼ mi+ - 270° 270° 10 kt METAR LFMK 302000Z AUTO 27010KT 230V290 9999 SCT072 17/13 Q1018
9:30 pm
V
63 °F 6¼ mi+ 7,000 ft 270° 270° 12 kt METAR LFMK 301930Z AUTO 27012KT 9999 BKN070 17/13 Q1017
9:00 pm
V
63 °F 6¼ mi+ 6,800 ft 270° 270° 10 kt METAR LFMK 301900Z AUTO 27010KT 230V290 9999 BKN068 BKN250 17/13 Q1017
8:30 pm
V
64 °F 6¼ mi+ 3,400 ft 270° 270° 10 kt METAR LFMK 301830Z AUTO 27010KT 9999 SCT028 BKN034 18/13 Q1017
8:00 pm
M
66 °F 6¼ mi+ 2,900 ft 280° 280° 12 kt METAR LFMK 301800Z AUTO 28012KT 9999 BKN029 BKN074 19/13 Q1017 TEMPO 28016G28KT
7:30 pm
V
66 °F 6¼ mi+ 3,000 ft 280° 280° 15 kt METAR LFMK 301730Z AUTO 28015KT 9999 BKN030 BKN074 19/13 Q1016 TEMPO 28016G28KT
7:00 pm
V
66 °F 6¼ mi+ 7,200 ft 270° 270° 11 kt METAR LFMK 301700Z AUTO 27011KT 240V300 9999 FEW024 OVC072 19/13 Q1016 TEMPO 28016G28KT
6:30 pm
V
66 °F 6¼ mi+ 4,200 ft 270° 270° 10 kt METAR LFMK 301630Z AUTO 27010KT 240V300 9999 FEW027 SCT034 BKN042 19/13 Q1017 TEMPO 28016G28KT
6:00 pm
M
66 °F 6¼ mi+ 2,700 ft 280° 280° 13 kt METAR LFMK 301600Z AUTO 28013KT 240V310 9999 BKN027 OVC035 19/13 Q1016 TEMPO 28016G28KT
5:30 pm
M
66 °F 6¼ mi+ 2,800 ft 280° 280° 12 kt METAR LFMK 301530Z AUTO 28012KT 9999 BKN028 OVC035 19/13 Q1016 TEMPO 28016G28KT
5:00 pm
V
66 °F 6¼ mi+ 3,100 ft 270° 270° 11 kt METAR LFMK 301500Z AUTO 27011KT 240V300 9999 BKN031 OVC037 19/13 Q1016 TEMPO 28016G28KT
4:30 pm
V
68 °F 6¼ mi+ 3,500 ft 300° 300° 11 kt METAR LFMK 301430Z AUTO 30011KT 9999 SCT028 BKN035 OVC062 20/14 Q1016 TEMPO 28016G28KT
4:00 pm
M
66 °F 6¼ mi+ 2,600 ft 280° 280° 12 kt METAR LFMK 301400Z AUTO 28012KT 250V310 9999 OVC026 19/13 Q1016 TEMPO 28016G28KT
3:30 pm
M
66 °F 6¼ mi+ 2,600 ft 300° 300° 13 kt METAR LFMK 301330Z AUTO 30013KT 9999 OVC026 19/13 Q1016 TEMPO 28016G28KT
3:00 pm
M
68 °F 6¼ mi+ 2,500 ft 290° 290° 14 kt METAR LFMK 301300Z AUTO 29014KT 260V320 9999 OVC025 20/13 Q1016 TEMPO 28016G28KT
2:30 pm
M
70 °F 6¼ mi+ 2,600 ft 280° 280° 15 kt METAR LFMK 301230Z AUTO 28015KT 240V310 9999 BKN026 BKN060 21/14 Q1016 TEMPO 28016G28KT
2:00 pm
V
68 °F 6¼ mi+ 5,800 ft 290° 290° 16 kt METAR LFMK 301200Z AUTO 29016KT 9999 FEW025 SCT034 BKN058 20/14 Q1016 TEMPO 28016G28KT
1:30 pm
V
68 °F 6¼ mi+ 3,400 ft 280° 280° 15 kt METAR LFMK 301130Z AUTO 28015KT 250V310 9999 SCT022 BKN034 BKN058 20/14 Q1015 TEMPO 28016G28KT
1:00 pm
V
66 °F 6¼ mi+ 5,600 ft 270° 270° 14 kt METAR LFMK 301100Z AUTO 27014KT 240V310 9999 SCT020 SCT031 OVC056 19/13 Q1015 TEMPO 28016G28KT
12:30 pm
V
64 °F 6¼ mi+ 5,200 ft 280° 280° 14 kt METAR LFMK 301030Z AUTO 28014KT 240V300 9999 FEW018 OVC052 18/13 Q1015 TEMPO 28016G28KT
12:00 pm
V
63 °F 6¼ mi+ 5,200 ft 270° 270° 15 kt METAR LFMK 301000Z AUTO 27015KT 9999 FEW014 OVC052 17/13 Q1015 TEMPO 28016G28KT BKN010
11:30 am
V
63 °F 6¼ mi+ 5,000 ft 280° 280° 18 kt METAR LFMK 300930Z AUTO 28018KT 9999 FEW008 BKN050 17/13 Q1015 TEMPO 28016G28KT BKN010
11:00 am
M
63 °F 6¼ mi+ 1,400 ft 280° 280° 15 kt METAR LFMK 300900Z AUTO 28015KT 250V310 9999 OVC014 17/15 Q1015 NOSIG
10:30 am
M
64 °F 6¼ mi+ 1,300 ft 270° 270° 15 kt METAR LFMK 300830Z AUTO 27015KT 9999 OVC013 18/14 Q1015 TEMPO 28016G28KT BECMG SCT016 BKN030
10:00 am
M
63 °F 6¼ mi+ 1,100 ft 270° 270° 13 kt METAR LFMK 300800Z AUTO 27013KT 250V310 9999 OVC011 17/15 Q1014 NOSIG
9:30 am
M
63 °F 6¼ mi+ 1,000 ft 270° 270° 12 kt METAR LFMK 300730Z AUTO 27012KT 240V300 9999 OVC010 17/15 Q1014 NOSIG
Older data

Download our app

Easy access to all aviation weather on your mobile phone and tablet.
With many features not available on the website, like offline support and a personal airport list.

We and third parties follow your internet behavior on our website with cookies. If you continue, we assume you agree with our cookie policy. Learn more